sensor_id;sensor_type;location;lat;lon;timestamp;pressure;altitude;pressure_sealevel;temperature;humidity
64095;BME280;50353;51.420;5.682;2023-02-19T00:01:19;101530.59;;;10.99;98.60
64095;BME280;50353;51.420;5.682;2023-02-19T00:03:49;101528.69;;;11.01;98.57
64095;BME280;50353;51.420;5.682;2023-02-19T00:06:17;101535.34;;;11.10;97.68
64095;BME280;50353;51.420;5.682;2023-02-19T00:08:43;101537.72;;;10.97;98.62
64095;BME280;50353;51.420;5.682;2023-02-19T00:11:11;101539.06;;;11.06;98.27
64095;BME280;50353;51.420;5.682;2023-02-19T00:13:38;101527.69;;;11.04;97.10
64095;BME280;50353;51.420;5.682;2023-02-19T00:16:08;101530.72;;;11.13;96.60
64095;BME280;50353;51.420;5.682;2023-02-19T00:18:34;101530.88;;;11.10;97.11
64095;BME280;50353;51.420;5.682;2023-02-19T00:21:00;101540.47;;;11.13;96.32
64095;BME280;50353;51.420;5.682;2023-02-19T00:23:25;101523.50;;;10.99;97.61
64095;BME280;50353;51.420;5.682;2023-02-19T00:25:52;101529.88;;;11.13;96.31
64095;BME280;50353;51.420;5.682;2023-02-19T00:28:18;101515.38;;;11.20;95.40
64095;BME280;50353;51.420;5.682;2023-02-19T00:30:43;101523.75;;;10.95;97.41
64095;BME280;50353;51.420;5.682;2023-02-19T00:33:08;101525.03;;;10.86;98.89
64095;BME280;50353;51.420;5.682;2023-02-19T00:35:34;101536.94;;;10.77;99.05
64095;BME280;50353;51.420;5.682;2023-02-19T00:38:00;101525.97;;;11.03;97.28
64095;BME280;50353;51.420;5.682;2023-02-19T00:40:25;101527.31;;;11.11;97.11
64095;BME280;50353;51.420;5.682;2023-02-19T00:42:51;101533.16;;;11.01;97.98
64095;BME280;50353;51.420;5.682;2023-02-19T00:45:16;101523.88;;;11.09;96.29
64095;BME280;50353;51.420;5.682;2023-02-19T00:47:42;101528.78;;;11.17;96.04
64095;BME280;50353;51.420;5.682;2023-02-19T00:50:08;101531.19;;;11.04;97.05
64095;BME280;50353;51.420;5.682;2023-02-19T00:52:33;101534.06;;;11.17;95.63
64095;BME280;50353;51.420;5.682;2023-02-19T00:54:58;101530.88;;;11.10;95.98
64095;BME280;50353;51.420;5.682;2023-02-19T00:57:24;101532.44;;;10.79;98.55
64095;BME280;50353;51.420;5.682;2023-02-19T00:59:49;101541.72;;;10.88;98.52
64095;BME280;50353;51.420;5.682;2023-02-19T01:02:14;101536.75;;;10.63;99.21
64095;BME280;50353;51.420;5.682;2023-02-19T01:04:40;101542.25;;;10.41;100.00
64095;BME280;50353;51.420;5.682;2023-02-19T01:07:05;101532.75;;;10.73;98.52
64095;BME280;50353;51.420;5.682;2023-02-19T01:09:30;101547.06;;;10.69;98.24
64095;BME280;50353;51.420;5.682;2023-02-19T01:11:56;101538.56;;;10.97;95.97
64095;BME280;50353;51.420;5.682;2023-02-19T01:14:21;101545.66;;;10.79;97.52
64095;BME280;50353;51.420;5.682;2023-02-19T01:16:46;101547.53;;;10.77;97.63
64095;BME280;50353;51.420;5.682;2023-02-19T01:19:12;101548.47;;;10.76;96.79
64095;BME280;50353;51.420;5.682;2023-02-19T01:21:38;101537.19;;;10.90;95.23
64095;BME280;50353;51.420;5.682;2023-02-19T01:24:04;101554.84;;;10.90;95.60
64095;BME280;50353;51.420;5.682;2023-02-19T01:26:31;101542.25;;;10.77;95.14
64095;BME280;50353;51.420;5.682;2023-02-19T01:28:58;101549.03;;;11.01;94.38
64095;BME280;50353;51.420;5.682;2023-02-19T01:31:24;101556.78;;;11.04;94.32
64095;BME280;50353;51.420;5.682;2023-02-19T01:33:51;101552.28;;;10.88;94.76
64095;BME280;50353;51.420;5.682;2023-02-19T01:36:17;101563.97;;;11.02;93.96
64095;BME280;50353;51.420;5.682;2023-02-19T01:38:43;101553.06;;;11.08;93.10
64095;BME280;50353;51.420;5.682;2023-02-19T01:41:11;101547.00;;;11.06;93.63
64095;BME280;50353;51.420;5.682;2023-02-19T01:46:45;101563.97;;;10.47;96.65
64095;BME280;50353;51.420;5.682;2023-02-19T01:49:22;101567.94;;;10.56;96.66
64095;BME280;50353;51.420;5.682;2023-02-19T01:51:55;101570.41;;;10.42;96.55
64095;BME280;50353;51.420;5.682;2023-02-19T01:54:24;101578.22;;;10.62;95.38
64095;BME280;50353;51.420;5.682;2023-02-19T01:56:52;101583.50;;;10.62;95.29
64095;BME280;50353;51.420;5.682;2023-02-19T01:59:18;101575.78;;;10.94;93.86
64095;BME280;50353;51.420;5.682;2023-02-19T02:01:44;101580.97;;;10.96;93.77
64095;BME280;50353;51.420;5.682;2023-02-19T02:04:11;101572.91;;;10.99;93.12
64095;BME280;50353;51.420;5.682;2023-02-19T02:06:55;101571.47;;;10.74;93.79
64095;BME280;50353;51.420;5.682;2023-02-19T02:09:26;101561.69;;;10.76;93.47
64095;BME280;50353;51.420;5.682;2023-02-19T02:12:10;101563.56;;;10.92;93.46
64095;BME280;50353;51.420;5.682;2023-02-19T02:14:39;101567.75;;;10.78;93.50
64095;BME280;50353;51.420;5.682;2023-02-19T02:17:19;101569.38;;;10.81;92.18
64095;BME280;50353;51.420;5.682;2023-02-19T02:30:40;101569.50;;;10.60;93.26
64095;BME280;50353;51.420;5.682;2023-02-19T02:36:12;101555.34;;;10.61;92.07
64095;BME280;50353;51.420;5.682;2023-02-19T02:38:42;101566.53;;;10.86;91.65
64095;BME280;50353;51.420;5.682;2023-02-19T02:41:09;101568.38;;;10.47;93.56
64095;BME280;50353;51.420;5.682;2023-02-19T02:43:36;101580.06;;;10.60;92.83
64095;BME280;50353;51.420;5.682;2023-02-19T02:46:01;101566.13;;;10.93;91.46
64095;BME280;50353;51.420;5.682;2023-02-19T02:49:02;101571.06;;;10.64;91.64
64095;BME280;50353;51.420;5.682;2023-02-19T02:51:40;101564.78;;;10.67;91.79
64095;BME280;50353;51.420;5.682;2023-02-19T02:54:14;101569.63;;;10.94;91.21
64095;BME280;50353;51.420;5.682;2023-02-19T02:57:00;101579.50;;;11.08;89.98
64095;BME280;50353;51.420;5.682;2023-02-19T02:59:30;101565.09;;;10.96;90.00
64095;BME280;50353;51.420;5.682;2023-02-19T03:02:16;101570.41;;;10.96;90.46
64095;BME280;50353;51.420;5.682;2023-02-19T03:07:35;101589.66;;;10.63;92.21
64095;BME280;50353;51.420;5.682;2023-02-19T03:10:04;101588.47;;;10.69;92.60
64095;BME280;50353;51.420;5.682;2023-02-19T03:12:32;101578.34;;;10.78;91.44
64095;BME280;50353;51.420;5.682;2023-02-19T03:15:18;101598.41;;;10.46;92.67
64095;BME280;50353;51.420;5.682;2023-02-19T03:18:04;101595.22;;;10.76;92.16
64095;BME280;50353;51.420;5.682;2023-02-19T03:20:55;101594.09;;;10.62;91.25
64095;BME280;50353;51.420;5.682;2023-02-19T03:23:22;101599.94;;;10.31;93.93
64095;BME280;50353;51.420;5.682;2023-02-19T03:26:11;101598.06;;;10.33;94.97
64095;BME280;50353;51.420;5.682;2023-02-19T03:28:38;101597.25;;;10.52;93.32
64095;BME280;50353;51.420;5.682;2023-02-19T03:31:26;101600.38;;;10.22;94.76
64095;BME280;50353;51.420;5.682;2023-02-19T03:33:56;101603.50;;;10.11;97.08
64095;BME280;50353;51.420;5.682;2023-02-19T03:36:23;101604.44;;;10.48;95.37
64095;BME280;50353;51.420;5.682;2023-02-19T03:39:02;101608.38;;;10.58;94.35
64095;BME280;50353;51.420;5.682;2023-02-19T03:42:04;101616.25;;;10.60;94.26
64095;BME280;50353;51.420;5.682;2023-02-19T03:44:45;101611.91;;;10.00;97.81
64095;BME280;50353;51.420;5.682;2023-02-19T03:47:20;101612.69;;;10.42;96.40
64095;BME280;50353;51.420;5.682;2023-02-19T03:49:57;101614.00;;;10.12;96.70
64095;BME280;50353;51.420;5.682;2023-02-19T03:55:11;101618.78;;;10.23;95.90
64095;BME280;50353;51.420;5.682;2023-02-19T03:57:48;101626.69;;;10.04;96.90
64095;BME280;50353;51.420;5.682;2023-02-19T04:00:17;101634.59;;;10.44;95.29
64095;BME280;50353;51.420;5.682;2023-02-19T04:03:01;101625.63;;;10.08;96.43
64095;BME280;50353;51.420;5.682;2023-02-19T04:05:31;101640.88;;;10.60;94.12
64095;BME280;50353;51.420;5.682;2023-02-19T04:08:02;101628.78;;;10.17;95.52
64095;BME280;50353;51.420;5.682;2023-02-19T04:10:30;101637.50;;;10.00;95.57
64095;BME280;50353;51.420;5.682;2023-02-19T04:12:59;101641.69;;;10.62;92.84
64095;BME280;50353;51.420;5.682;2023-02-19T04:15:29;101666.22;;;10.26;94.81
64095;BME280;50353;51.420;5.682;2023-02-19T04:18:03;101652.19;;;9.66;98.44
64095;BME280;50353;51.420;5.682;2023-02-19T04:20:34;101658.28;;;9.87;99.11
64095;BME280;50353;51.420;5.682;2023-02-19T04:23:02;101660.41;;;10.18;97.37
64095;BME280;50353;51.420;5.682;2023-02-19T04:25:28;101666.94;;;9.90;98.12
64095;BME280;50353;51.420;5.682;2023-02-19T04:27:54;101662.38;;;9.73;99.59
64095;BME280;50353;51.420;5.682;2023-02-19T04:30:20;101669.50;;;9.92;99.50
64095;BME280;50353;51.420;5.682;2023-02-19T04:32:45;101666.41;;;9.82;99.84
64095;BME280;50353;51.420;5.682;2023-02-19T04:35:11;101671.72;;;10.22;97.01
64095;BME280;50353;51.420;5.682;2023-02-19T04:37:36;101664.56;;;9.84;99.07
64095;BME280;50353;51.420;5.682;2023-02-19T04:40:01;101674.06;;;9.68;99.19
64095;BME280;50353;51.420;5.682;2023-02-19T04:42:27;101682.19;;;9.84;98.75
64095;BME280;50353;51.420;5.682;2023-02-19T04:44:52;101681.72;;;9.94;97.92
64095;BME280;50353;51.420;5.682;2023-02-19T04:47:17;101686.41;;;10.08;96.62
64095;BME280;50353;51.420;5.682;2023-02-19T04:49:43;101694.13;;;10.13;96.74
64095;BME280;50353;51.420;5.682;2023-02-19T04:52:09;101692.88;;;10.01;97.29
64095;BME280;50353;51.420;5.682;2023-02-19T04:54:35;101705.25;;;10.20;95.58
64095;BME280;50353;51.420;5.682;2023-02-19T04:57:00;101712.28;;;10.00;96.84
64095;BME280;50353;51.420;5.682;2023-02-19T04:59:25;101713.28;;;9.77;97.18
64095;BME280;50353;51.420;5.682;2023-02-19T05:01:51;101720.81;;;9.66;99.37
64095;BME280;50353;51.420;5.682;2023-02-19T05:04:16;101718.63;;;9.96;96.93
64095;BME280;50353;51.420;5.682;2023-02-19T05:06:41;101721.88;;;10.03;97.28
64095;BME280;50353;51.420;5.682;2023-02-19T05:09:06;101728.91;;;9.81;98.35
64095;BME280;50353;51.420;5.682;2023-02-19T05:11:32;101727.00;;;9.85;99.35
64095;BME280;50353;51.420;5.682;2023-02-19T05:13:58;101727.63;;;9.92;98.47
64095;BME280;50353;51.420;5.682;2023-02-19T05:16:24;101734.97;;;10.25;97.06
64095;BME280;50353;51.420;5.682;2023-02-19T05:18:49;101728.34;;;10.16;96.90
64095;BME280;50353;51.420;5.682;2023-02-19T05:21:15;101732.50;;;10.01;98.17
64095;BME280;50353;51.420;5.682;2023-02-19T05:23:40;101740.69;;;9.95;97.67
64095;BME280;50353;51.420;5.682;2023-02-19T05:26:07;101746.38;;;10.06;97.38
64095;BME280;50353;51.420;5.682;2023-02-19T05:28:33;101746.91;;;10.35;96.29
64095;BME280;50353;51.420;5.682;2023-02-19T05:31:03;101754.13;;;10.30;95.20
64095;BME280;50353;51.420;5.682;2023-02-19T05:33:29;101760.09;;;10.14;96.82
64095;BME280;50353;51.420;5.682;2023-02-19T05:35:55;101761.41;;;9.84;97.39
64095;BME280;50353;51.420;5.682;2023-02-19T05:38:21;101761.34;;;9.85;98.34
64095;BME280;50353;51.420;5.682;2023-02-19T05:40:47;101758.72;;;10.06;97.31
64095;BME280;50353;51.420;5.682;2023-02-19T05:43:12;101765.78;;;9.62;99.08
64095;BME280;50353;51.420;5.682;2023-02-19T05:45:38;101757.66;;;9.89;98.70
64095;BME280;50353;51.420;5.682;2023-02-19T05:48:04;101769.09;;;9.68;100.00
64095;BME280;50353;51.420;5.682;2023-02-19T05:50:31;101761.53;;;9.60;99.73
64095;BME280;50353;51.420;5.682;2023-02-19T05:53:01;101755.47;;;9.78;99.50
64095;BME280;50353;51.420;5.682;2023-02-19T05:55:27;101764.72;;;9.89;98.28
64095;BME280;50353;51.420;5.682;2023-02-19T05:57:53;101756.75;;;9.90;99.24
64095;BME280;50353;51.420;5.682;2023-02-19T06:00:18;101771.84;;;10.07;97.38
64095;BME280;50353;51.420;5.682;2023-02-19T06:02:44;101773.69;;;9.64;98.54
64095;BME280;50353;51.420;5.682;2023-02-19T06:05:09;101768.78;;;9.55;99.71
64095;BME280;50353;51.420;5.682;2023-02-19T06:07:35;101764.66;;;10.11;96.78
64095;BME280;50353;51.420;5.682;2023-02-19T06:10:06;101772.38;;;9.95;97.71
64095;BME280;50353;51.420;5.682;2023-02-19T06:12:31;101774.38;;;9.68;100.00
64095;BME280;50353;51.420;5.682;2023-02-19T06:14:57;101777.84;;;9.70;99.08
64095;BME280;50353;51.420;5.682;2023-02-19T06:17:22;101773.28;;;9.73;99.40
64095;BME280;50353;51.420;5.682;2023-02-19T06:19:48;101767.06;;;9.74;98.75
64095;BME280;50353;51.420;5.682;2023-02-19T06:22:14;101773.41;;;9.70;100.00
64095;BME280;50353;51.420;5.682;2023-02-19T06:24:40;101775.94;;;9.51;100.00
64095;BME280;50353;51.420;5.682;2023-02-19T06:27:06;101781.91;;;9.34;100.00
64095;BME280;50353;51.420;5.682;2023-02-19T06:29:32;101790.31;;;9.22;100.00
64095;BME280;50353;51.420;5.682;2023-02-19T06:31:58;101786.38;;;9.76;100.00
64095;BME280;50353;51.420;5.682;2023-02-19T06:34:23;101791.22;;;9.87;98.65
64095;BME280;50353;51.420;5.682;2023-02-19T06:36:49;101799.69;;;9.51;100.00
64095;BME280;50353;51.420;5.682;2023-02-19T06:39:14;101802.91;;;9.37;100.00
64095;BME280;50353;51.420;5.682;2023-02-19T06:41:39;101793.38;;;9.55;100.00
64095;BME280;50353;51.420;5.682;2023-02-19T06:44:04;101811.16;;;9.50;100.00
64095;BME280;50353;51.420;5.682;2023-02-19T06:46:30;101824.22;;;9.31;100.00
64095;BME280;50353;51.420;5.682;2023-02-19T06:48:55;101823.81;;;9.42;100.00
64095;BME280;50353;51.420;5.682;2023-02-19T06:51:20;101829.53;;;9.75;99.28
64095;BME280;50353;51.420;5.682;2023-02-19T06:53:48;101830.16;;;9.60;99.01
64095;BME280;50353;51.420;5.682;2023-02-19T06:56:24;101835.16;;;9.22;100.00
64095;BME280;50353;51.420;5.682;2023-02-19T06:58:51;101833.09;;;9.30;100.00
64095;BME280;50353;51.420;5.682;2023-02-19T07:01:17;101837.28;;;9.58;99.64
64095;BME280;50353;51.420;5.682;2023-02-19T07:03:42;101841.78;;;9.32;100.00
64095;BME280;50353;51.420;5.682;2023-02-19T07:06:07;101839.56;;;9.43;99.76
64095;BME280;50353;51.420;5.682;2023-02-19T07:08:33;101835.88;;;9.49;98.56
64095;BME280;50353;51.420;5.682;2023-02-19T07:10:58;101846.47;;;9.92;96.69
64095;BME280;50353;51.420;5.682;2023-02-19T07:13:25;101841.31;;;9.89;95.45
64095;BME280;50353;51.420;5.682;2023-02-19T07:16:00;101849.59;;;9.79;96.67
64095;BME280;50353;51.420;5.682;2023-02-19T07:18:27;101853.81;;;9.39;99.22
64095;BME280;50353;51.420;5.682;2023-02-19T07:20:53;101850.03;;;9.69;97.66
64095;BME280;50353;51.420;5.682;2023-02-19T07:23:18;101871.00;;;9.27;98.95
64095;BME280;50353;51.420;5.682;2023-02-19T07:25:44;101861.34;;;9.72;97.04
64095;BME280;50353;51.420;5.682;2023-02-19T07:28:09;101866.44;;;9.77;97.08
64095;BME280;50353;51.420;5.682;2023-02-19T07:30:34;101867.81;;;9.86;95.75
64095;BME280;50353;51.420;5.682;2023-02-19T07:33:00;101876.88;;;9.58;97.47
64095;BME280;50353;51.420;5.682;2023-02-19T07:35:25;101880.97;;;9.43;97.38
64095;BME280;50353;51.420;5.682;2023-02-19T07:37:50;101894.44;;;9.59;97.33
64095;BME280;50353;51.420;5.682;2023-02-19T07:40:16;101891.03;;;9.77;95.75
64095;BME280;50353;51.420;5.682;2023-02-19T07:42:41;101894.72;;;9.51;97.73
64095;BME280;50353;51.420;5.682;2023-02-19T07:45:06;101899.59;;;9.62;97.18
64095;BME280;50353;51.420;5.682;2023-02-19T07:47:32;101903.19;;;9.59;96.85
64095;BME280;50353;51.420;5.682;2023-02-19T07:49:57;101904.78;;;9.63;98.01
64095;BME280;50353;51.420;5.682;2023-02-19T07:52:22;101900.13;;;9.70;97.71
64095;BME280;50353;51.420;5.682;2023-02-19T07:54:47;101913.44;;;9.21;100.00
64095;BME280;50353;51.420;5.682;2023-02-19T07:57:13;101926.09;;;9.59;99.73
64095;BME280;50353;51.420;5.682;2023-02-19T07:59:38;101921.31;;;9.69;99.00
64095;BME280;50353;51.420;5.682;2023-02-19T08:02:18;101915.75;;;9.76;98.64
64095;BME280;50353;51.420;5.682;2023-02-19T08:05:02;101945.00;;;9.24;100.00
64095;BME280;50353;51.420;5.682;2023-02-19T08:07:34;101955.88;;;9.39;100.00
64095;BME280;50353;51.420;5.682;2023-02-19T08:10:00;101949.53;;;9.68;100.00
64095;BME280;50353;51.420;5.682;2023-02-19T08:12:45;101955.31;;;9.54;100.00
64095;BME280;50353;51.420;5.682;2023-02-19T08:15:29;101956.31;;;9.52;100.00
64095;BME280;50353;51.420;5.682;2023-02-19T08:17:54;101963.09;;;9.81;99.06
64095;BME280;50353;51.420;5.682;2023-02-19T08:20:19;101966.38;;;9.40;100.00
64095;BME280;50353;51.420;5.682;2023-02-19T08:22:44;101971.72;;;9.39;100.00
64095;BME280;50353;51.420;5.682;2023-02-19T08:25:10;101974.19;;;9.67;100.00
64095;BME280;50353;51.420;5.682;2023-02-19T08:27:35;101969.22;;;9.81;99.86
64095;BME280;50353;51.420;5.682;2023-02-19T08:30:00;101975.91;;;9.68;100.00
64095;BME280;50353;51.420;5.682;2023-02-19T08:32:26;101983.28;;;9.60;100.00
64095;BME280;50353;51.420;5.682;2023-02-19T08:34:51;101979.03;;;9.56;100.00
64095;BME280;50353;51.420;5.682;2023-02-19T08:37:16;101989.34;;;9.38;100.00
64095;BME280;50353;51.420;5.682;2023-02-19T08:39:41;101990.47;;;9.78;100.00
64095;BME280;50353;51.420;5.682;2023-02-19T08:42:07;101988.88;;;9.51;100.00
64095;BME280;50353;51.420;5.682;2023-02-19T08:44:32;101988.75;;;9.54;100.00
64095;BME280;50353;51.420;5.682;2023-02-19T08:46:57;101988.63;;;9.57;100.00
64095;BME280;50353;51.420;5.682;2023-02-19T08:49:25;101990.00;;;9.43;100.00
64095;BME280;50353;51.420;5.682;2023-02-19T08:51:51;101992.38;;;9.27;100.00
64095;BME280;50353;51.420;5.682;2023-02-19T08:54:16;101987.63;;;9.37;100.00
64095;BME280;50353;51.420;5.682;2023-02-19T08:56:42;101998.63;;;9.48;100.00
64095;BME280;50353;51.420;5.682;2023-02-19T08:59:07;101999.09;;;9.60;100.00
64095;BME280;50353;51.420;5.682;2023-02-19T09:01:32;102001.38;;;9.45;100.00
64095;BME280;50353;51.420;5.682;2023-02-19T09:03:58;101998.66;;;9.72;100.00
64095;BME280;50353;51.420;5.682;2023-02-19T09:06:24;102010.53;;;9.35;100.00
64095;BME280;50353;51.420;5.682;2023-02-19T09:08:49;102012.25;;;9.61;100.00
64095;BME280;50353;51.420;5.682;2023-02-19T09:11:14;102015.47;;;9.70;100.00
64095;BME280;50353;51.420;5.682;2023-02-19T09:13:40;102025.13;;;9.45;100.00
64095;BME280;50353;51.420;5.682;2023-02-19T09:16:06;102032.88;;;9.50;100.00
64095;BME280;50353;51.420;5.682;2023-02-19T09:18:31;102010.44;;;9.86;100.00
64095;BME280;50353;51.420;5.682;2023-02-19T09:21:01;102019.13;;;9.89;100.00
64095;BME280;50353;51.420;5.682;2023-02-19T09:23:29;102018.81;;;9.97;100.00
64095;BME280;50353;51.420;5.682;2023-02-19T09:25:58;102019.19;;;9.64;100.00
64095;BME280;50353;51.420;5.682;2023-02-19T09:28:24;102023.75;;;9.82;100.00
64095;BME280;50353;51.420;5.682;2023-02-19T09:30:50;102018.47;;;9.82;100.00
64095;BME280;50353;51.420;5.682;2023-02-19T09:33:15;102022.63;;;9.90;100.00
64095;BME280;50353;51.420;5.682;2023-02-19T09:35:40;102017.44;;;9.87;100.00
64095;BME280;50353;51.420;5.682;2023-02-19T09:38:05;102018.78;;;9.75;100.00
64095;BME280;50353;51.420;5.682;2023-02-19T09:40:31;102011.53;;;10.04;99.22
64095;BME280;50353;51.420;5.682;2023-02-19T09:42:56;102026.78;;;10.41;96.83
64095;BME280;50353;51.420;5.682;2023-02-19T09:45:24;102019.72;;;10.64;96.42
64095;BME280;50353;51.420;5.682;2023-02-19T09:47:55;102026.56;;;10.24;97.29
64095;BME280;50353;51.420;5.682;2023-02-19T09:50:26;102028.16;;;10.28;97.92
64095;BME280;50353;51.420;5.682;2023-02-19T09:52:59;102038.63;;;9.85;98.21
64095;BME280;50353;51.420;5.682;2023-02-19T09:55:33;102024.97;;;9.97;98.33
64095;BME280;50353;51.420;5.682;2023-02-19T09:58:02;102037.47;;;9.92;98.19
64095;BME280;50353;51.420;5.682;2023-02-19T10:00:33;102054.66;;;10.04;98.19
64095;BME280;50353;51.420;5.682;2023-02-19T10:03:05;102061.97;;;10.20;97.72
64095;BME280;50353;51.420;5.682;2023-02-19T10:05:35;102076.22;;;10.15;96.76
64095;BME280;50353;51.420;5.682;2023-02-19T10:08:04;102076.69;;;10.03;97.83
64095;BME280;50353;51.420;5.682;2023-02-19T10:10:34;102070.28;;;10.32;96.39
64095;BME280;50353;51.420;5.682;2023-02-19T10:15:37;102085.88;;;10.62;95.25
64095;BME280;50353;51.420;5.682;2023-02-19T10:18:05;102091.97;;;10.87;94.30
64095;BME280;50353;51.420;5.682;2023-02-19T10:20:32;102090.63;;;10.76;92.06
64095;BME280;50353;51.420;5.682;2023-02-19T10:23:03;102080.91;;;10.55;94.38
64095;BME280;50353;51.420;5.682;2023-02-19T10:25:30;102082.75;;;10.29;95.11
64095;BME280;50353;51.420;5.682;2023-02-19T10:27:57;102102.25;;;10.50;93.98
64095;BME280;50353;51.420;5.682;2023-02-19T10:30:33;102106.16;;;10.62;93.67
64095;BME280;50353;51.420;5.682;2023-02-19T10:33:04;102112.91;;;10.47;94.52
64095;BME280;50353;51.420;5.682;2023-02-19T10:35:35;102098.16;;;10.41;93.92
64095;BME280;50353;51.420;5.682;2023-02-19T10:38:03;102117.97;;;10.53;94.71
64095;BME280;50353;51.420;5.682;2023-02-19T10:40:31;102118.47;;;10.63;93.97
64095;BME280;50353;51.420;5.682;2023-02-19T10:43:00;102130.84;;;10.40;95.35
64095;BME280;50353;51.420;5.682;2023-02-19T10:45:31;102143.91;;;10.43;94.96
64095;BME280;50353;51.420;5.682;2023-02-19T10:47:57;102147.28;;;10.47;94.58
64095;BME280;50353;51.420;5.682;2023-02-19T10:50:30;102147.81;;;10.57;92.71
64095;BME280;50353;51.420;5.682;2023-02-19T10:52:57;102158.88;;;10.67;92.24
64095;BME280;50353;51.420;5.682;2023-02-19T10:55:29;102160.28;;;10.53;92.97
64095;BME280;50353;51.420;5.682;2023-02-19T10:57:55;102155.47;;;10.41;91.79
64095;BME280;50353;51.420;5.682;2023-02-19T11:00:26;102160.16;;;10.56;91.50
64095;BME280;50353;51.420;5.682;2023-02-19T11:03:13;102157.06;;;10.45;91.20
64095;BME280;50353;51.420;5.682;2023-02-19T11:05:49;102176.66;;;10.63;91.30
64095;BME280;50353;51.420;5.682;2023-02-19T11:08:22;102156.03;;;10.71;91.33
64095;BME280;50353;51.420;5.682;2023-02-19T11:10:48;102158.97;;;10.41;90.67
64095;BME280;50353;51.420;5.682;2023-02-19T11:13:16;102152.94;;;10.38;92.58
64095;BME280;50353;51.420;5.682;2023-02-19T11:15:50;102167.59;;;10.46;92.42
64095;BME280;50353;51.420;5.682;2023-02-19T11:18:28;102160.91;;;10.60;91.78
64095;BME280;50353;51.420;5.682;2023-02-19T11:20:56;102151.50;;;10.53;92.97
64095;BME280;50353;51.420;5.682;2023-02-19T11:23:31;102155.84;;;10.54;92.47
64095;BME280;50353;51.420;5.682;2023-02-19T11:26:01;102157.78;;;10.25;93.56
64095;BME280;50353;51.420;5.682;2023-02-19T11:28:35;102161.31;;;10.25;94.71
64095;BME280;50353;51.420;5.682;2023-02-19T11:36:38;102132.81;;;10.34;95.31
64095;BME280;50353;51.420;5.682;2023-02-19T11:41:51;102140.94;;;10.75;96.45
64095;BME280;50353;51.420;5.682;2023-02-19T11:47:36;102124.91;;;11.00;95.51
64095;BME280;50353;51.420;5.682;2023-02-19T11:53:12;102130.22;;;11.21;91.91
64095;BME280;50353;51.420;5.682;2023-02-19T11:56:13;102134.59;;;11.22;91.07
64095;BME280;50353;51.420;5.682;2023-02-19T11:58:50;102135.41;;;11.65;87.38
64095;BME280;50353;51.420;5.682;2023-02-19T12:04:06;102139.78;;;11.45;87.59
64095;BME280;50353;51.420;5.682;2023-02-19T12:07:13;102128.78;;;11.13;87.22
64095;BME280;50353;51.420;5.682;2023-02-19T12:10:02;102139.41;;;11.12;87.24
64095;BME280;50353;51.420;5.682;2023-02-19T12:12:47;102131.69;;;11.07;87.57
64095;BME280;50353;51.420;5.682;2023-02-19T12:15:50;102134.56;;;11.01;88.41
64095;BME280;50353;51.420;5.682;2023-02-19T12:18:37;102122.22;;;11.02;88.20
64095;BME280;50353;51.420;5.682;2023-02-19T12:24:14;102143.88;;;11.32;83.76
64095;BME280;50353;51.420;5.682;2023-02-19T12:26:59;102138.31;;;11.38;85.12
64095;BME280;50353;51.420;5.682;2023-02-19T12:35:37;102137.41;;;10.96;84.54
64095;BME280;50353;51.420;5.682;2023-02-19T12:38:29;102135.50;;;11.21;85.95
64095;BME280;50353;51.420;5.682;2023-02-19T12:41:41;102134.88;;;11.36;81.12
64095;BME280;50353;51.420;5.682;2023-02-19T12:44:22;102139.19;;;11.39;82.05
64095;BME280;50353;51.420;5.682;2023-02-19T12:46:55;102131.44;;;11.55;81.66
64095;BME280;50353;51.420;5.682;2023-02-19T12:49:32;102138.22;;;11.41;80.88
64095;BME280;50353;51.420;5.682;2023-02-19T12:52:18;102138.13;;;11.43;81.24
64095;BME280;50353;51.420;5.682;2023-02-19T12:54:46;102131.50;;;11.32;83.38
64095;BME280;50353;51.420;5.682;2023-02-19T12:57:30;102139.50;;;11.10;80.74
64095;BME280;50353;51.420;5.682;2023-02-19T13:00:06;102143.03;;;11.73;82.10
64095;BME280;50353;51.420;5.682;2023-02-19T13:02:49;102143.41;;;11.22;81.48
64095;BME280;50353;51.420;5.682;2023-02-19T13:05:21;102148.63;;;11.03;80.75
64095;BME280;50353;51.420;5.682;2023-02-19T13:07:57;102133.78;;;10.99;83.25
64095;BME280;50353;51.420;5.682;2023-02-19T13:10:38;102135.31;;;11.05;81.22
64095;BME280;50353;51.420;5.682;2023-02-19T13:13:13;102159.03;;;11.49;83.11
64095;BME280;50353;51.420;5.682;2023-02-19T13:15:46;102154.63;;;11.49;81.45
64095;BME280;50353;51.420;5.682;2023-02-19T13:18:23;102167.44;;;11.38;80.36
64095;BME280;50353;51.420;5.682;2023-02-19T13:20:50;102164.25;;;11.30;82.45
64095;BME280;50353;51.420;5.682;2023-02-19T13:23:30;102167.34;;;11.41;80.67
64095;BME280;50353;51.420;5.682;2023-02-19T13:37:22;102175.50;;;11.14;79.82
64095;BME280;50353;51.420;5.682;2023-02-19T13:39:50;102178.31;;;11.53;78.95
64095;BME280;50353;51.420;5.682;2023-02-19T13:44:49;102175.50;;;11.98;76.65
64095;BME280;50353;51.420;5.682;2023-02-19T13:50:23;102174.22;;;11.66;77.75
64095;BME280;50353;51.420;5.682;2023-02-19T13:52:50;102172.53;;;11.84;79.67
64095;BME280;50353;51.420;5.682;2023-02-19T13:58:35;102198.06;;;11.23;77.27
64095;BME280;50353;51.420;5.682;2023-02-19T14:01:08;102215.06;;;10.95;77.49
64095;BME280;50353;51.420;5.682;2023-02-19T14:06:04;102223.25;;;11.11;78.92
64095;BME280;50353;51.420;5.682;2023-02-19T14:08:59;102214.91;;;11.21;81.00
64095;BME280;50353;51.420;5.682;2023-02-19T14:20:01;102231.84;;;10.72;80.61
64095;BME280;50353;51.420;5.682;2023-02-19T14:25:26;102247.47;;;10.55;80.76
64095;BME280;50353;51.420;5.682;2023-02-19T14:30:31;102251.44;;;10.18;81.21
64095;BME280;50353;51.420;5.682;2023-02-19T14:32:57;102247.75;;;10.71;82.16
64095;BME280;50353;51.420;5.682;2023-02-19T14:35:37;102241.81;;;10.88;81.56